SouthEast Lincoln: Weather Underground Data


Davis Vantage Pro Historical Data
 
Daily Summary for September 19, 2018 Units:  English    Metric   Both
« Previous Day
Next Day »
Daily Weekly Monthly Yearly Custom
  Current: High: Low: Average:
Temperature: 82.7 °F 82.7 °F 67.4 °F 69.7 °F
Dew Point: 72.35 °F 72.41 °F 65.41 °F 67.3 °F
Humidity: 71% 96% 71% 92%
Wind Speed: 0mph 5mph 0mph 0.1mph
Wind Gust: 0mph 6mph - -
Wind:Calm - - ESE
Pressure: 29.83 in 29.84 in 29.79 in -
Precipitation: 0 in      
Historical Graphs
 
 
Tabular Data for September 19, 2018
Time Temperature Dew Point Pressure Wind Wind Speed Wind Gust Humidity Rainfall Rate (Hourly) solar
00:03 69.8 °F 66.74 °F 29.82 in SE 2 mph 6 mph 90% 0 in 0.00 W/m2
00:08 69.8 °F 66.74 °F 29.83 in SE 1 mph 2 mph 90% 0 in 0.00 W/m2
00:13 69.7 °F 66.64 °F 29.83 in ESE 5 mph 5 mph 90% 0 in 0.00 W/m2
00:18 69.7 °F 66.64 °F 29.83 in Calm   2 mph 90% 0 in 0.00 W/m2
00:23 69.6 °F 66.54 °F 29.83 in Calm   1 mph 90% 0 in 0.00 W/m2
00:28 69.5 °F 66.44 °F 29.83 in Calm     90% 0 in 0.00 W/m2
00:33 69.4 °F 66.34 °F 29.83 in Calm     90% 0 in 0.00 W/m2
00:38 69.3 °F 66.25 °F 29.83 in ESE 2 mph 4 mph 90% 0 in 0.00 W/m2
00:43 69.1 °F 66.37 °F 29.83 in Calm   2 mph 91% 0 in 0.00 W/m2
00:48 69 °F 66.27 °F 29.83 in ESE 1 mph 1 mph 91% 0 in 0.00 W/m2
00:53 68.9 °F 66.17 °F 29.83 in Calm   1 mph 91% 0 in 0.00 W/m2
00:58 68.8 °F 66.07 °F 29.83 in Calm   1 mph 91% 0 in 0.00 W/m2
01:03 68.7 °F 65.97 °F 29.84 in ESE 1 mph 2 mph 91% 0 in 0.00 W/m2
01:08 68.5 °F 65.77 °F 29.84 in Calm   1 mph 91% 0 in 0.00 W/m2
01:13 68.5 °F 66.09 °F 29.84 in Calm   1 mph 92% 0 in 0.00 W/m2
01:18 68.3 °F 65.89 °F 29.84 in Calm     92% 0 in 0.00 W/m2
01:23 68.3 °F 65.89 °F 29.84 in Calm     92% 0 in 0.00 W/m2
01:28 68.2 °F 65.79 °F 29.84 in Calm     92% 0 in 0.00 W/m2
01:33 68.1 °F 65.69 °F 29.84 in Calm     92% 0 in 0.00 W/m2
01:38 68 °F 65.9 °F 29.84 in Calm     93% 0 in 0.00 W/m2
01:43 67.9 °F 65.81 °F 29.84 in Calm     93% 0 in 0.00 W/m2
01:48 67.8 °F 65.71 °F 29.83 in Calm     93% 0 in 0.00 W/m2
01:53 67.7 °F 65.61 °F 29.83 in Calm     93% 0 in 0.00 W/m2
01:58 67.6 °F 65.51 °F 29.83 in Calm     93% 0 in 0.00 W/m2
02:03 67.6 °F 65.51 °F 29.83 in Calm     93% 0 in 0.00 W/m2
02:08 67.5 °F 65.41 °F 29.82 in Calm     93% 0 in 0.00 W/m2
02:13 67.5 °F 65.72 °F 29.82 in Calm     94% 0 in 0.00 W/m2
02:18 67.5 °F 65.72 °F 29.83 in Calm     94% 0 in 0.00 W/m2
02:23 67.5 °F 65.72 °F 29.82 in Calm     94% 0 in 0.00 W/m2
02:28 67.5 °F 65.72 °F 29.82 in Calm     94% 0 in 0.00 W/m2
02:33 67.6 °F 65.82 °F 29.82 in Calm     94% 0 in 0.00 W/m2
02:38 67.5 °F 65.72 °F 29.82 in Calm     94% 0 in 0.00 W/m2
02:43 67.6 °F 65.82 °F 29.82 in Calm     94% 0 in 0.00 W/m2
02:48 67.6 °F 65.82 °F 29.82 in Calm   1 mph 94% 0 in 0.00 W/m2
02:53 67.6 °F 65.82 °F 29.82 in Calm     94% 0 in 0.00 W/m2
02:58 67.6 °F 65.82 °F 29.82 in Calm     94% 0 in 0.00 W/m2
03:03 67.7 °F 65.92 °F 29.82 in Calm     94% 0 in 0.00 W/m2
03:08 67.7 °F 66.22 °F 29.82 in Calm     95% 0 in 0.00 W/m2
03:13 67.8 °F 66.32 °F 29.82 in Calm     95% 0 in 0.00 W/m2
03:18 67.8 °F 66.32 °F 29.82 in Calm     95% 0 in 0.00 W/m2
03:23 67.8 °F 66.32 °F 29.81 in Calm     95% 0 in 0.00 W/m2
03:28 67.9 °F 66.42 °F 29.81 in Calm     95% 0 in 0.00 W/m2
03:33 67.9 °F 66.42 °F 29.81 in Calm     95% 0 in 0.00 W/m2
03:38 67.8 °F 66.32 °F 29.80 in Calm     95% 0 in 0.00 W/m2
03:43 67.9 °F 66.42 °F 29.80 in Calm     95% 0 in 0.00 W/m2
03:48 67.9 °F 66.42 °F 29.80 in Calm     95% 0 in 0.00 W/m2
03:53 67.9 °F 66.42 °F 29.80 in Calm     95% 0 in 0.00 W/m2
03:58 67.9 °F 66.42 °F 29.80 in Calm     95% 0 in 0.00 W/m2
04:03 67.8 °F 66.32 °F 29.80 in Calm     95% 0 in 0.00 W/m2
04:08 67.7 °F 66.22 °F 29.81 in Calm     95% 0 in 0.00 W/m2
04:13 67.7 °F 66.22 °F 29.80 in Calm     95% 0 in 0.00 W/m2
04:18 67.7 °F 66.22 °F 29.80 in Calm     95% 0 in 0.00 W/m2
04:23 67.7 °F 66.22 °F 29.80 in Calm     95% 0 in 0.00 W/m2
04:28 67.6 °F 66.12 °F 29.80 in Calm     95% 0 in 0.00 W/m2
04:33 67.5 °F 66.02 °F 29.80 in Calm     95% 0 in 0.00 W/m2
04:38 67.5 °F 66.02 °F 29.80 in Calm     95% 0 in 0.00 W/m2
04:43 67.4 °F 65.92 °F 29.80 in Calm     95% 0 in 0.00 W/m2
04:48 67.4 °F 65.92 °F 29.79 in Calm     95% 0 in 0.00 W/m2
04:53 67.4 °F 65.92 °F 29.79 in Calm     95% 0 in 0.00 W/m2
04:58 67.4 °F 65.92 °F 29.79 in Calm     95% 0 in 0.00 W/m2
05:03 67.5 °F 66.02 °F 29.79 in Calm     95% 0 in 0.00 W/m2
05:08 67.6 °F 66.12 °F 29.80 in Calm     95% 0 in 0.00 W/m2
05:13 67.6 °F 66.12 °F 29.80 in Calm     95% 0 in 0.00 W/m2
05:18 67.6 °F 66.12 °F 29.80 in Calm     95% 0 in 0.00 W/m2
05:23 67.7 °F 66.22 °F 29.80 in Calm     95% 0 in 0.00 W/m2
05:28 67.8 °F 66.62 °F 29.79 in Calm     96% 0 in 0.00 W/m2
05:33 67.8 °F 66.32 °F 29.80 in Calm     95% 0 in 0.00 W/m2
05:38 68 °F 66.52 °F 29.80 in Calm     95% 0 in 0.00 W/m2
05:43 68.1 °F 66.62 °F 29.80 in Calm     95% 0 in 0.00 W/m2
05:48 68.1 °F 66.62 °F 29.80 in Calm     95% 0 in 0.00 W/m2
05:53 68.2 °F 67.02 °F 29.80 in Calm     96% 0 in 0.00 W/m2
05:58 68.2 °F 66.72 °F 29.81 in Calm     95% 0 in 0.00 W/m2
06:03 68.2 °F 66.72 °F 29.81 in Calm     95% 0 in 0.00 W/m2
06:08 68.2 °F 66.72 °F 29.81 in Calm     95% 0 in 0.00 W/m2
06:13 68.2 °F 66.72 °F 29.81 in Calm     95% 0 in 0.00 W/m2
06:18 68.3 °F 66.82 °F 29.81 in Calm     95% 0 in 0.00 W/m2
06:23 68.3 °F 66.82 °F 29.81 in Calm     95% 0 in 0.00 W/m2
06:28 68.4 °F 66.92 °F 29.81 in Calm     95% 0 in 0.00 W/m2
06:33 68.4 °F 66.92 °F 29.81 in Calm     95% 0 in 0.00 W/m2
06:38 68.4 °F 66.92 °F 29.82 in Calm     95% 0 in 0.00 W/m2
06:43 68.3 °F 66.82 °F 29.82 in Calm     95% 0 in 0.00 W/m2
06:48 68.3 °F 66.82 °F 29.82 in Calm     95% 0 in 0.00 W/m2
06:53 68.2 °F 66.72 °F 29.82 in Calm     95% 0 in 0.00 W/m2
06:58 68.2 °F 66.72 °F 29.82 in Calm     95% 0 in 0.00 W/m2
07:03 68.1 °F 66.62 °F 29.82 in Calm     95% 0 in 0.00 W/m2
07:08 68.1 °F 66.62 °F 29.82 in Calm     95% 0 in 0.00 W/m2
07:13 68 °F 66.52 °F 29.82 in Calm     95% 0 in 5.00 W/m2
07:18 68 °F 66.52 °F 29.82 in Calm     95% 0 in 9.00 W/m2
07:22 68 °F 66.52 °F 29.82 in Calm     95% 0 in 11.00 W/m2
07:28 68.1 °F 66.62 °F 29.83 in Calm     95% 0 in 16.00 W/m2
07:33 68.1 °F 66.62 °F 29.83 in Calm     95% 0 in 25.00 W/m2
07:38 68.3 °F 66.82 °F 29.83 in Calm     95% 0 in 19.00 W/m2
07:43 68.3 °F 66.82 °F 29.83 in Calm     95% 0 in 23.00 W/m2
07:48 68.4 °F 66.92 °F 29.83 in Calm     95% 0 in 26.00 W/m2
07:53 68.5 °F 67.02 °F 29.83 in Calm     95% 0 in 35.00 W/m2
07:58 68.6 °F 67.11 °F 29.83 in Calm     95% 0 in 37.00 W/m2
08:03 68.7 °F 67.21 °F 29.83 in Calm     95% 0 in 39.00 W/m2
08:08 68.9 °F 67.41 °F 29.83 in Calm     95% 0 in 47.00 W/m2
08:13 69.1 °F 67.61 °F 29.83 in Calm     95% 0 in 62.00 W/m2
08:18 69.2 °F 67.71 °F 29.83 in Calm     95% 0 in 98.00 W/m2
08:23 69.6 °F 68.41 °F 29.83 in Calm     96% 0 in 76.00 W/m2
08:27 69.8 °F 68.61 °F 29.83 in Calm     96% 0 in 79.00 W/m2
08:33 70.2 °F 68.7 °F 29.83 in Calm     95% 0 in 95.00 W/m2
08:38 70.6 °F 69.41 °F 29.83 in Calm     96% 0 in 107.00 W/m2
08:43 71.2 °F 70.01 °F 29.83 in Calm     96% 0 in 111.00 W/m2
08:48 71.8 °F 70.6 °F 29.83 in Calm     96% 0 in 107.00 W/m2
08:53 72.2 °F 70.69 °F 29.83 in Calm     95% 0 in 128.00 W/m2
08:58 72.7 °F 70.88 °F 29.83 in Calm     94% 0 in 137.00 W/m2
09:03 73.4 °F 71.26 °F 29.83 in Calm     93% 0 in 141.00 W/m2
09:07 73.8 °F 71.33 °F 29.83 in Calm     92% 0 in 156.00 W/m2
09:13 74.6 °F 71.48 °F 29.83 in Calm     90% 0 in 156.00 W/m2
09:18 75.1 °F 71.31 °F 29.83 in Calm     88% 0 in 178.00 W/m2
09:23 75.6 °F 71.46 °F 29.83 in Calm     87% 0 in 311.00 W/m2
09:28 76.2 °F 71.37 °F 29.83 in Calm     85% 0 in 397.00 W/m2
09:33 76.9 °F 71.35 °F 29.83 in Calm     83% 0 in 322.00 W/m2
09:38 77.7 °F 71.77 °F 29.83 in Calm     82% 0 in 334.00 W/m2
09:43 78.2 °F 71.9 °F 29.83 in Calm     81% 0 in 429.00 W/m2
09:48 79.1 °F 72.41 °F 29.83 in Calm     80% 0 in 431.00 W/m2
09:53 79.8 °F 72.34 °F 29.83 in Calm     78% 0 in 422.00 W/m2
09:58 80.2 °F 71.95 °F 29.83 in Calm     76% 0 in 410.00 W/m2
10:03 80.6 °F 71.95 °F 29.83 in Calm     75% 0 in 427.00 W/m2
10:08 80.9 °F 72.24 °F 29.83 in Calm     75% 0 in 457.00 W/m2
10:13 81.3 °F 72.23 °F 29.83 in Calm     74% 0 in 469.00 W/m2
10:18 82.1 °F 72.18 °F 29.83 in Calm     72% 0 in 471.00 W/m2
10:22 82.7 °F 72.35 °F 29.83 in Calm     71% 0 in 454.00 W/m2
SouthEast Lincoln Weather
Compliments of Weather Underground - 2.25 mb